createdAt,value
2023-04-05T00:00:01.437Z,3.50
2023-04-05T00:02:32.290Z,3.72
2023-04-05T00:05:03.371Z,4.55
2023-04-05T00:07:34.428Z,6.35
2023-04-05T00:10:04.284Z,4.82
2023-04-05T00:12:33.936Z,5.20
2023-04-05T00:15:06.728Z,3.70
2023-04-05T00:17:36.331Z,5.40
2023-04-05T00:20:08.131Z,3.00
2023-04-05T00:22:38.503Z,4.75
2023-04-05T00:25:09.380Z,6.78
2023-04-05T00:27:39.181Z,6.20
2023-04-05T00:30:12.231Z,5.90
2023-04-05T00:32:42.275Z,5.93
2023-04-05T00:35:12.454Z,4.90
2023-04-05T00:37:42.117Z,4.10
2023-04-05T00:40:13.035Z,4.72
2023-04-05T00:42:42.767Z,3.80
2023-04-05T00:45:16.638Z,5.10
2023-04-05T00:47:47.848Z,7.45
2023-04-05T00:50:18.431Z,6.47
2023-04-05T00:52:49.753Z,2.67
2023-04-05T00:55:20.168Z,5.05
2023-04-05T00:57:50.215Z,4.45
2023-04-05T01:00:23.430Z,3.90
2023-04-05T01:02:57.999Z,4.45
2023-04-05T01:05:37.832Z,4.17
2023-04-05T01:08:16.505Z,2.97
2023-04-05T01:10:51.748Z,4.15
2023-04-05T01:13:21.459Z,4.05
2023-04-05T01:15:54.141Z,3.00
2023-04-05T01:18:24.641Z,4.05
2023-04-05T01:21:02.347Z,4.28
2023-04-05T01:23:40.953Z,5.85
2023-04-05T01:26:40.473Z,6.38
2023-04-05T01:29:47.513Z,4.38
2023-04-05T01:32:27.714Z,3.40
2023-04-05T01:35:04.741Z,5.82
2023-04-05T01:37:37.920Z,3.38
2023-04-05T01:40:09.178Z,5.72
2023-04-05T01:42:39.097Z,6.47
2023-04-05T01:45:12.662Z,6.05
2023-04-05T01:47:45.188Z,6.25
2023-04-05T01:50:15.788Z,7.13
2023-04-05T01:52:45.541Z,2.83
2023-04-05T01:55:15.236Z,4.53
2023-04-05T01:57:44.891Z,6.90
2023-04-05T02:00:16.315Z,3.05
2023-04-05T02:02:49.231Z,3.17
2023-04-05T02:05:21.700Z,4.55
2023-04-05T02:07:51.428Z,4.70
2023-04-05T02:10:21.679Z,3.88
2023-04-05T02:12:51.372Z,8.48
2023-04-05T02:15:21.179Z,4.25
2023-04-05T02:17:54.404Z,6.05
2023-04-05T02:20:26.077Z,5.47
2023-04-05T02:22:55.906Z,5.18
2023-04-05T02:25:25.837Z,5.57
2023-04-05T02:27:55.560Z,8.10
2023-04-05T02:30:25.209Z,3.60
2023-04-05T02:32:57.557Z,5.50
2023-04-05T02:35:27.275Z,4.57
2023-04-05T02:37:57.028Z,4.15
2023-04-05T02:40:26.709Z,4.63
2023-04-05T02:42:56.575Z,4.93
2023-04-05T02:45:28.062Z,7.47
2023-04-05T02:48:02.669Z,6.55
2023-04-05T02:50:34.525Z,6.97
2023-04-05T02:53:04.296Z,5.38
2023-04-05T02:55:34.259Z,3.20
2023-04-05T02:58:04.992Z,4.53
2023-04-05T03:00:41.095Z,5.80
2023-04-05T03:03:15.104Z,4.82
2023-04-05T03:05:45.861Z,7.30
2023-04-05T03:08:19.768Z,5.22
2023-04-05T03:11:00.174Z,6.15
2023-04-05T03:13:29.805Z,4.25
2023-04-05T03:16:00.382Z,3.65
2023-04-05T03:18:35.329Z,6.53
2023-04-05T03:21:12.020Z,4.82
2023-04-05T03:23:50.589Z,5.07
2023-04-05T03:26:25.845Z,6.88
2023-04-05T03:28:56.699Z,5.88
2023-04-05T03:31:33.823Z,5.93
2023-04-05T03:34:10.567Z,4.93
2023-04-05T03:36:49.940Z,9.07
2023-04-05T03:39:39.903Z,7.30
2023-04-05T03:42:09.549Z,10.10
2023-04-05T03:44:39.765Z,3.80
2023-04-05T03:47:09.519Z,6.40
2023-04-05T03:49:44.358Z,8.25
2023-04-05T03:52:14.029Z,4.65
2023-04-05T03:54:47.536Z,4.88
2023-04-05T03:57:21.667Z,3.42
2023-04-05T03:59:52.779Z,3.97
2023-04-05T04:02:22.513Z,4.18
2023-04-05T04:04:55.777Z,6.25
2023-04-05T04:07:26.929Z,5.80
2023-04-05T04:09:57.122Z,6.47
2023-04-05T04:12:27.287Z,5.88
2023-04-05T04:15:01.816Z,4.90
2023-04-05T04:18:00.660Z,6.68
2023-04-05T04:20:38.651Z,13.63
2023-04-05T04:23:25.073Z,3.95
2023-04-05T04:25:57.694Z,6.22
2023-04-05T04:28:46.509Z,6.80
2023-04-05T04:31:49.846Z,13.02
2023-04-05T04:34:21.296Z,5.30
2023-04-05T04:37:18.016Z,4.85
2023-04-05T04:40:19.307Z,5.47
2023-04-05T04:43:27.376Z,13.73
2023-04-05T04:46:15.632Z,9.02
2023-04-05T04:49:06.299Z,8.77
2023-04-05T04:51:36.433Z,11.90
2023-04-05T04:54:08.981Z,8.23
2023-04-05T04:56:38.663Z,14.90
2023-04-05T04:59:08.330Z,6.13
2023-04-05T05:01:38.190Z,6.82
2023-04-05T05:04:08.209Z,7.05
2023-04-05T05:06:40.323Z,17.15
2023-04-05T05:09:12.823Z,7.88
2023-04-05T05:11:50.532Z,8.90
2023-04-05T05:14:20.202Z,8.50
2023-04-05T05:16:49.870Z,9.65
2023-04-05T05:19:21.524Z,20.17
2023-04-05T05:21:54.934Z,14.77
2023-04-05T05:24:27.850Z,15.00
2023-04-05T05:26:57.541Z,14.63
2023-04-05T05:29:27.401Z,12.07
2023-04-05T05:31:57.356Z,13.40
2023-04-05T05:34:27.505Z,13.45
2023-04-05T05:37:00.118Z,9.63
2023-04-05T05:39:32.324Z,13.55
2023-04-05T05:42:01.949Z,10.95
2023-04-05T05:44:31.854Z,6.38
2023-04-05T05:47:01.521Z,5.13
2023-04-05T05:49:31.354Z,18.92
2023-04-05T05:52:01.147Z,8.70
2023-04-05T05:54:33.489Z,10.60
2023-04-05T05:57:03.693Z,14.77
2023-04-05T05:59:33.561Z,16.52
2023-04-05T06:02:03.427Z,28.85
2023-04-05T06:04:34.546Z,11.02
2023-04-05T06:07:04.346Z,10.02
2023-04-05T06:09:36.760Z,9.93
2023-04-05T06:12:06.747Z,11.82
2023-04-05T06:14:36.504Z,6.78
2023-04-05T06:17:06.270Z,4.63
2023-04-05T06:19:36.168Z,8.82
2023-04-05T06:22:05.999Z,6.15
2023-04-05T06:24:38.694Z,4.88
2023-04-05T06:27:08.378Z,7.40
2023-04-05T06:29:38.114Z,16.45
2023-04-05T06:32:08.273Z,13.65
2023-04-05T06:34:37.963Z,9.23
2023-04-05T06:37:07.646Z,19.55
2023-04-05T06:39:39.897Z,25.23
2023-04-05T06:42:09.732Z,26.27
2023-04-05T06:44:46.561Z,11.07
2023-04-05T06:47:17.540Z,14.25
2023-04-05T06:49:47.201Z,6.18
2023-04-05T06:52:16.830Z,8.75
2023-04-05T06:54:49.097Z,6.13
2023-04-05T06:57:18.743Z,12.23
2023-04-05T06:59:48.858Z,5.00
2023-04-05T07:02:18.502Z,9.15
2023-04-05T07:04:48.518Z,4.65
2023-04-05T07:07:18.313Z,6.68
2023-04-05T07:09:50.561Z,3.58
2023-04-05T07:12:20.302Z,4.65
2023-04-05T07:14:49.942Z,6.97
2023-04-05T07:17:19.799Z,9.75
2023-04-05T07:19:49.690Z,7.00
2023-04-05T07:22:19.358Z,13.25
2023-04-05T07:24:52.629Z,11.80
2023-04-05T07:27:22.428Z,7.45
2023-04-05T07:29:52.362Z,10.23
2023-04-05T07:32:22.136Z,9.10
2023-04-05T07:34:51.935Z,5.90
2023-04-05T07:37:21.728Z,13.35
2023-04-05T07:39:54.204Z,8.18
2023-04-05T07:42:24.075Z,7.38
2023-04-05T07:44:53.904Z,6.28
2023-04-05T07:47:23.549Z,11.63
2023-04-05T07:49:53.280Z,5.95
2023-04-05T07:52:23.038Z,6.03
2023-04-05T07:54:55.338Z,3.80
2023-04-05T07:57:25.362Z,3.95
2023-04-05T07:59:56.879Z,6.07
2023-04-05T08:02:26.551Z,24.60
2023-04-05T08:04:56.333Z,4.72
2023-04-05T08:07:26.272Z,13.20
2023-04-05T08:09:59.527Z,4.75
2023-04-05T08:12:29.504Z,3.92
2023-04-05T08:14:59.265Z,8.48
2023-04-05T08:17:29.294Z,4.35
2023-04-05T08:19:58.961Z,6.72
2023-04-05T08:22:31.020Z,4.43
2023-04-05T08:25:03.372Z,3.88
2023-04-05T08:27:33.142Z,5.47
2023-04-05T08:30:02.823Z,3.53
2023-04-05T08:32:33.258Z,4.78
2023-04-05T08:35:05.235Z,3.25
2023-04-05T08:37:37.027Z,11.43
2023-04-05T08:40:10.959Z,4.15
2023-04-05T08:42:48.661Z,3.80
2023-04-05T08:45:20.925Z,5.15
2023-04-05T08:47:54.625Z,9.18
2023-04-05T08:50:24.788Z,3.40
2023-04-05T08:52:54.505Z,11.85
2023-04-05T08:55:27.710Z,3.63
2023-04-05T08:58:04.881Z,5.20
2023-04-05T09:00:35.888Z,7.03
2023-04-05T09:03:06.980Z,6.22
2023-04-05T09:05:39.576Z,7.15
2023-04-05T09:08:09.672Z,8.27
2023-04-05T09:10:42.137Z,5.03
2023-04-05T09:13:12.167Z,4.10
2023-04-05T09:15:43.250Z,5.18
2023-04-05T09:18:25.433Z,5.15
2023-04-05T09:20:59.842Z,3.67
2023-04-05T09:23:31.378Z,2.92
2023-04-05T09:26:03.794Z,28.33
2023-04-05T09:28:46.060Z,10.65
2023-04-05T09:31:34.533Z,34.35
2023-04-05T09:34:06.834Z,23.42
2023-04-05T09:36:36.969Z,27.20
2023-04-05T09:39:11.380Z,13.10
2023-04-05T09:41:43.645Z,5.10
2023-04-05T09:44:13.367Z,4.60
2023-04-05T09:46:43.941Z,4.95
2023-04-05T09:49:14.626Z,14.30
2023-04-05T09:51:46.357Z,3.75
2023-04-05T09:54:16.427Z,4.53
2023-04-05T09:56:58.855Z,5.97
2023-04-05T09:59:28.949Z,9.52
2023-04-05T10:01:59.184Z,6.60
2023-04-05T10:04:29.208Z,12.18
2023-04-05T10:06:59.240Z,5.45
2023-04-05T10:09:29.185Z,3.72
2023-04-05T10:12:02.860Z,7.00
2023-04-05T10:14:32.654Z,5.88
2023-04-05T10:17:13.061Z,9.45
2023-04-05T10:20:00.236Z,8.80
2023-04-05T10:22:35.638Z,5.38
2023-04-05T10:25:09.497Z,6.82
2023-04-05T10:27:52.717Z,4.65
2023-04-05T10:30:22.435Z,10.55
2023-04-05T10:33:10.212Z,4.65
2023-04-05T10:35:48.208Z,3.65
2023-04-05T10:38:24.672Z,3.00
2023-04-05T10:40:57.593Z,3.10
2023-04-05T10:43:32.012Z,4.40
2023-04-05T10:46:02.525Z,4.03
2023-04-05T10:48:40.067Z,10.63
2023-04-05T10:51:10.437Z,3.45
2023-04-05T10:53:40.864Z,3.50
2023-04-05T10:56:11.579Z,4.40
2023-04-05T10:58:45.754Z,4.93
2023-04-05T11:01:17.689Z,3.22
2023-04-05T11:03:52.116Z,4.75
2023-04-05T11:06:27.483Z,6.28
2023-04-05T11:09:00.092Z,3.35
2023-04-05T11:11:30.097Z,5.78
2023-04-05T11:14:02.420Z,4.40
2023-04-05T11:16:44.742Z,3.40
2023-04-05T11:19:14.433Z,5.30
2023-04-05T11:21:44.557Z,8.77
2023-04-05T11:24:17.069Z,6.45
2023-04-05T11:26:57.751Z,5.60
2023-04-05T11:29:54.728Z,14.32
2023-04-05T11:32:25.363Z,6.35
2023-04-05T11:35:02.591Z,3.85
2023-04-05T11:37:56.063Z,4.10
2023-04-05T11:40:32.462Z,7.57
2023-04-05T11:43:08.016Z,4.30
2023-04-05T11:45:42.004Z,3.38
2023-04-05T11:48:13.485Z,4.32
2023-04-05T11:50:45.342Z,3.40
2023-04-05T11:53:16.320Z,3.20
2023-04-05T11:55:48.230Z,9.10
2023-04-05T11:58:19.186Z,6.85
2023-04-05T12:01:01.213Z,4.55
2023-04-05T12:03:31.897Z,5.18
2023-04-05T12:06:02.952Z,2.80
2023-04-05T12:08:43.573Z,5.70
2023-04-05T12:11:14.366Z,12.07
2023-04-05T12:13:44.180Z,4.68
2023-04-05T12:16:16.875Z,4.00
2023-04-05T12:18:46.548Z,6.07
2023-04-05T12:21:16.391Z,3.35
2023-04-05T12:23:46.160Z,3.20
2023-04-05T12:26:16.445Z,3.83
2023-04-05T12:28:53.664Z,7.47
2023-04-05T12:31:41.548Z,7.90
2023-04-05T12:34:12.423Z,5.22
2023-04-05T12:36:46.323Z,4.03
2023-04-05T12:39:15.990Z,4.53
2023-04-05T12:41:46.369Z,17.38
2023-04-05T12:44:18.866Z,3.95
2023-04-05T12:46:51.177Z,5.97
2023-04-05T12:49:21.662Z,10.85
2023-04-05T12:51:51.424Z,7.78
2023-04-05T12:54:24.402Z,2.38
2023-04-05T12:56:55.224Z,3.53
2023-04-05T12:59:25.986Z,2.97
2023-04-05T13:01:58.382Z,4.10
2023-04-05T13:04:28.960Z,2.03
2023-04-05T13:06:58.569Z,9.85
2023-04-05T13:09:28.184Z,3.08
2023-04-05T13:11:58.078Z,3.40
2023-04-05T13:14:27.838Z,4.85
2023-04-05T13:17:00.055Z,6.25
2023-04-05T13:19:29.770Z,5.75
2023-04-05T13:21:59.508Z,4.97
2023-04-05T13:24:29.215Z,6.28
2023-04-05T13:26:58.959Z,3.28
2023-04-05T13:29:28.640Z,6.72
2023-04-05T13:32:01.163Z,3.25
2023-04-05T13:34:31.653Z,3.10
2023-04-05T13:37:01.488Z,2.75
2023-04-05T13:39:31.136Z,3.20
2023-04-05T13:42:01.671Z,3.30
2023-04-05T13:44:31.799Z,4.63
2023-04-05T13:47:04.075Z,6.32
2023-04-05T13:49:33.796Z,4.15
2023-04-05T13:52:03.610Z,2.75
2023-04-05T13:54:33.294Z,2.83
2023-04-05T13:57:03.047Z,4.47
2023-04-05T13:59:32.797Z,5.80
2023-04-05T14:02:05.172Z,2.97
2023-04-05T14:04:35.060Z,4.05
2023-04-05T14:07:04.731Z,4.65
2023-04-05T14:09:34.461Z,3.03
2023-04-05T14:12:06.830Z,2.80
2023-04-05T14:14:37.122Z,2.92
2023-04-05T14:17:12.687Z,3.15
2023-04-05T14:19:42.340Z,4.40
2023-04-05T14:22:12.155Z,5.57
2023-04-05T14:24:41.799Z,5.40
2023-04-05T14:27:11.779Z,3.95
2023-04-05T14:29:41.475Z,2.10
2023-04-05T14:32:13.752Z,6.45
2023-04-05T14:34:43.473Z,3.85
2023-04-05T14:37:13.174Z,37.90
2023-04-05T14:39:42.914Z,3.95
2023-04-05T14:42:12.662Z,5.30
2023-04-05T14:44:42.291Z,3.45
2023-04-05T14:47:14.803Z,4.35
2023-04-05T14:49:44.453Z,2.92
2023-04-05T14:52:14.140Z,3.20
2023-04-05T14:54:44.955Z,2.63
2023-04-05T14:57:14.724Z,3.75
2023-04-05T14:59:44.365Z,8.05
2023-04-05T15:02:16.802Z,4.03
2023-04-05T15:04:46.475Z,2.80
2023-04-05T15:07:16.340Z,4.28
2023-04-05T15:09:46.044Z,2.95
2023-04-05T15:12:15.728Z,2.75
2023-04-05T15:14:45.750Z,3.25
2023-04-05T15:17:18.104Z,4.82
2023-04-05T15:19:47.881Z,2.78
2023-04-05T15:22:20.542Z,3.67
2023-04-05T15:24:50.390Z,3.40
2023-04-05T15:27:20.119Z,3.80
2023-04-05T15:29:49.835Z,3.30
2023-04-05T15:32:22.243Z,3.95
2023-04-05T15:34:51.939Z,4.15
2023-04-05T15:37:21.807Z,3.22
2023-04-05T15:39:51.559Z,2.40
2023-04-05T15:42:21.933Z,4.18
2023-04-05T15:44:51.816Z,2.10
2023-04-05T15:47:24.059Z,4.50
2023-04-05T15:49:53.739Z,8.75
2023-04-05T15:52:23.498Z,2.90
2023-04-05T15:54:53.179Z,3.08
2023-04-05T15:57:24.340Z,1.90
2023-04-05T15:59:54.576Z,3.28
2023-04-05T16:02:26.896Z,6.35
2023-04-05T16:04:56.564Z,3.70
2023-04-05T16:07:26.699Z,4.15
2023-04-05T16:09:56.389Z,4.40
2023-04-05T16:12:26.145Z,3.35
2023-04-05T16:14:55.864Z,5.13
2023-04-05T16:17:28.434Z,7.43
2023-04-05T16:19:58.553Z,8.38
2023-04-05T16:22:28.975Z,3.15
2023-04-05T16:24:58.684Z,5.63
2023-04-05T16:27:28.347Z,5.65
2023-04-05T16:29:58.039Z,3.40
2023-04-05T16:32:30.290Z,2.17
2023-04-05T16:34:59.970Z,2.85
2023-04-05T16:37:29.636Z,4.25
2023-04-05T16:39:59.525Z,2.45
2023-04-05T16:42:29.248Z,3.22
2023-04-05T16:44:59.000Z,5.75
2023-04-05T16:47:31.497Z,2.88
2023-04-05T16:50:01.197Z,2.92
2023-04-05T16:52:30.962Z,4.72
2023-04-05T16:55:03.018Z,3.00
2023-04-05T16:57:32.973Z,3.22
2023-04-05T17:00:02.670Z,2.95
2023-04-05T17:02:35.035Z,2.60
2023-04-05T17:05:05.032Z,1.85
2023-04-05T17:07:34.788Z,4.32
2023-04-05T17:10:04.921Z,3.15
2023-04-05T17:12:37.391Z,3.85
2023-04-05T17:15:07.385Z,6.07
2023-04-05T17:17:39.838Z,7.55
2023-04-05T17:20:10.974Z,4.82
2023-04-05T17:22:41.594Z,4.00
2023-04-05T17:25:11.921Z,2.88
2023-04-05T17:27:42.439Z,6.13
2023-04-05T17:30:13.259Z,3.08
2023-04-05T17:32:45.652Z,3.83
2023-04-05T17:35:15.654Z,3.63
2023-04-05T17:37:45.463Z,3.33
2023-04-05T17:40:18.713Z,2.35
2023-04-05T17:42:49.462Z,1.90
2023-04-05T17:45:19.209Z,2.45
2023-04-05T17:47:51.443Z,5.38
2023-04-05T17:50:23.739Z,3.65
2023-04-05T17:52:54.432Z,3.47
2023-04-05T17:55:24.551Z,4.03
2023-04-05T17:57:54.222Z,4.55
2023-04-05T18:00:23.942Z,5.45
2023-04-05T18:02:56.843Z,3.88
2023-04-05T18:05:27.315Z,4.13
2023-04-05T18:07:56.985Z,5.30
2023-04-05T18:10:26.694Z,6.40
2023-04-05T18:12:56.622Z,5.05
2023-04-05T18:15:26.344Z,6.72
2023-04-05T18:17:58.978Z,5.50
2023-04-05T18:20:28.742Z,6.13
2023-04-05T18:22:58.394Z,3.92
2023-04-05T18:25:28.327Z,4.80
2023-04-05T18:27:58.216Z,7.45
2023-04-05T18:30:27.855Z,4.75
2023-04-05T18:33:00.258Z,4.88
2023-04-05T18:35:30.135Z,3.10
2023-04-05T18:38:00.063Z,5.47
2023-04-05T18:40:30.280Z,3.25
2023-04-05T18:42:59.911Z,19.88
2023-04-05T18:45:29.662Z,14.32
2023-04-05T18:48:02.263Z,3.28
2023-04-05T18:50:31.985Z,7.55
2023-04-05T18:53:01.900Z,24.02
2023-04-05T18:55:31.576Z,37.05
2023-04-05T18:58:01.463Z,11.70
2023-04-05T19:00:31.267Z,5.22
2023-04-05T19:03:03.672Z,6.00
2023-04-05T19:05:33.619Z,3.33
2023-04-05T19:08:03.390Z,3.35
2023-04-05T19:10:33.724Z,5.88
2023-04-05T19:13:03.403Z,5.20
2023-04-05T19:15:33.084Z,4.85
2023-04-05T19:18:05.364Z,9.77
2023-04-05T19:20:35.231Z,40.05
2023-04-05T19:23:05.998Z,38.55
2023-04-05T19:25:36.922Z,54.88
2023-04-05T19:28:07.684Z,46.33
2023-04-05T19:30:38.416Z,6.35
2023-04-05T19:33:11.101Z,8.95
2023-04-05T19:35:41.948Z,38.55
2023-04-05T19:38:13.404Z,68.45
2023-04-05T19:40:43.184Z,39.00
2023-04-05T19:43:13.119Z,53.47
2023-04-05T19:45:44.577Z,24.02
2023-04-05T19:48:41.807Z,10.32
2023-04-05T19:51:14.298Z,6.05
2023-04-05T19:53:48.093Z,4.28
2023-04-05T19:56:23.737Z,4.78
2023-04-05T19:58:58.857Z,35.95
2023-04-05T20:01:37.614Z,15.23
2023-04-05T20:04:15.798Z,20.35
2023-04-05T20:06:51.516Z,8.43
2023-04-05T20:09:22.449Z,4.35
2023-04-05T20:11:56.544Z,5.20
2023-04-05T20:14:30.665Z,4.80
2023-04-05T20:17:01.545Z,5.35
2023-04-05T20:19:34.398Z,4.50
2023-04-05T20:22:05.534Z,4.78
2023-04-05T20:24:35.200Z,4.28
2023-04-05T20:27:04.938Z,6.82
2023-04-05T20:29:36.346Z,5.63
2023-04-05T20:32:07.999Z,7.07
2023-04-05T20:34:43.920Z,5.72
2023-04-05T20:39:43.585Z,13.35
2023-04-05T20:42:13.683Z,7.50
2023-04-05T20:44:44.081Z,6.15
2023-04-05T20:47:13.723Z,6.03
2023-04-05T20:49:47.911Z,6.05
2023-04-05T20:52:17.607Z,9.25
2023-04-05T20:54:49.958Z,7.55
2023-04-05T20:57:19.633Z,4.85
2023-04-05T20:59:49.271Z,6.25
2023-04-05T21:02:19.136Z,5.78
2023-04-05T21:04:51.845Z,4.63
2023-04-05T21:07:22.218Z,4.55
2023-04-05T21:09:51.879Z,4.00
2023-04-05T21:12:21.580Z,5.35
2023-04-05T21:14:51.212Z,4.72
2023-04-05T21:17:21.004Z,6.80
2023-04-05T21:19:53.282Z,10.18
2023-04-05T21:22:22.953Z,6.75
2023-04-05T21:24:52.598Z,7.25
2023-04-05T21:27:24.514Z,7.55
2023-04-05T21:29:54.176Z,6.72
2023-04-05T21:32:26.130Z,5.78
2023-04-05T21:34:58.342Z,5.82
2023-04-05T21:37:28.115Z,7.78
2023-04-05T21:39:57.827Z,5.93
2023-04-05T21:42:27.981Z,5.05
2023-04-05T21:44:57.632Z,7.40
2023-04-05T21:47:27.425Z,5.07
2023-04-05T21:50:00.166Z,5.53
2023-04-05T21:52:30.897Z,9.15
2023-04-05T21:55:00.782Z,7.95
2023-04-05T21:57:30.505Z,5.43
2023-04-05T22:00:00.164Z,6.10
2023-04-05T22:02:30.061Z,7.85
2023-04-05T22:05:02.347Z,6.20
2023-04-05T22:07:32.288Z,7.32
2023-04-05T22:10:02.165Z,4.32
2023-04-05T22:12:31.936Z,4.25
2023-04-05T22:15:01.739Z,4.97
2023-04-05T22:17:31.622Z,3.45
2023-04-05T22:20:03.937Z,4.82
2023-04-05T22:22:33.729Z,6.05
2023-04-05T22:25:03.566Z,6.00
2023-04-05T22:27:33.265Z,6.78
2023-04-05T22:30:03.459Z,5.80
2023-04-05T22:32:33.373Z,6.43
2023-04-05T22:35:06.491Z,7.53
2023-04-05T22:37:38.360Z,4.45
2023-04-05T22:40:09.430Z,4.78
2023-04-05T22:42:42.168Z,5.95
2023-04-05T22:45:12.887Z,4.45
2023-04-05T22:47:42.575Z,7.47
2023-04-05T22:50:15.003Z,7.30
2023-04-05T22:52:45.105Z,5.03
2023-04-05T22:55:15.774Z,11.43
2023-04-05T22:57:45.498Z,4.35
2023-04-05T23:00:16.638Z,4.65
2023-04-05T23:02:46.381Z,4.47
2023-04-05T23:05:18.824Z,5.03
2023-04-05T23:07:48.492Z,8.55
2023-04-05T23:10:18.223Z,5.13
2023-04-05T23:12:48.848Z,4.95
2023-04-05T23:15:18.576Z,4.28
2023-04-05T23:17:49.407Z,5.05
2023-04-05T23:20:21.871Z,4.95
2023-04-05T23:22:51.524Z,8.23
2023-04-05T23:25:21.205Z,7.50
2023-04-05T23:27:50.905Z,9.10
2023-04-05T23:30:20.613Z,7.45
2023-04-05T23:32:50.523Z,6.10
2023-04-05T23:35:22.796Z,9.38
2023-04-05T23:37:52.549Z,7.90
2023-04-05T23:40:23.247Z,9.02
2023-04-05T23:42:53.455Z,10.38
2023-04-05T23:45:23.088Z,6.63
2023-04-05T23:47:52.769Z,6.35
2023-04-05T23:50:25.183Z,5.63
2023-04-05T23:52:54.869Z,6.32
2023-04-05T23:55:24.912Z,8.93
2023-04-05T23:57:57.904Z,6.50
